Terminal Aerodrome Forecast
Issued by NWS Bismarck, ND

Home | Current Version | Previous Version | Graphics & Text | Print | Product List | Glossary On
Versions: 1 2 3 4 5 6 7 8 9 10 11 12 13 14 15 16 17 18 19 20 21 22 23
000
FTUS43 KBIS 311741
TAFBIS
TAF
KBIS 311741Z 3118/0118 26017G25KT P6SM VCSH FEW030 BKN040 OVC060
     FM311900 26020G29KT P6SM -SHRA BKN015 OVC060
     FM010100 29017G25KT P6SM VCSH OVC020
     FM010600 30015KT P6SM OVC015=

USA.gov is the U.S. government's official web portal to all federal, state and local government web resources and services.